createdAt,value
2017-06-23T00:00:36.515Z,0
2017-06-23T00:01:46.143Z,0
2017-06-23T00:02:55.779Z,0
2017-06-23T00:04:06.029Z,0
2017-06-23T00:05:15.972Z,0
2017-06-23T00:06:25.911Z,0
2017-06-23T00:07:35.847Z,0
2017-06-23T00:08:46.113Z,0
2017-06-23T00:09:56.052Z,0
2017-06-23T00:11:05.683Z,0
2017-06-23T00:12:15.941Z,0
2017-06-23T00:13:25.884Z,0
2017-06-23T00:14:35.523Z,0
2017-06-23T00:15:45.458Z,0
2017-06-23T00:16:55.411Z,0
2017-06-23T00:18:05.347Z,0
2017-06-23T00:19:15.592Z,0
2017-06-23T00:20:25.529Z,0
2017-06-23T00:21:35.788Z,0
2017-06-23T00:22:46.043Z,0
2017-06-23T00:23:56.292Z,0
2017-06-23T00:25:05.916Z,0
2017-06-23T00:26:15.549Z,0
2017-06-23T00:27:25.490Z,0
2017-06-23T00:28:35.115Z,0
2017-06-23T00:29:45.056Z,0
2017-06-23T00:30:54.999Z,0
2017-06-23T00:32:04.962Z,0
2017-06-23T00:33:15.210Z,0
2017-06-23T00:34:25.467Z,0
2017-06-23T00:35:35.722Z,0
2017-06-23T00:36:45.669Z,0
2017-06-23T00:37:55.921Z,0
2017-06-23T00:39:06.186Z,0
2017-06-23T00:40:16.446Z,0
2017-06-23T00:41:26.386Z,0
2017-06-23T00:42:36.319Z,0
2017-06-23T00:43:46.256Z,0
2017-06-23T00:44:56.510Z,0
2017-06-23T00:46:06.757Z,0
2017-06-23T00:47:17.011Z,0
2017-06-23T00:48:26.942Z,0
2017-06-23T00:49:37.196Z,0
2017-06-23T00:50:46.826Z,0
2017-06-23T00:51:56.444Z,0
2017-06-23T00:53:06.714Z,0
2017-06-23T00:54:16.658Z,0
2017-06-23T00:55:26.594Z,0
2017-06-23T00:56:36.846Z,0
2017-06-23T00:57:46.788Z,0
2017-06-23T00:58:56.411Z,0
2017-06-23T01:00:06.668Z,0
2017-06-23T01:01:16.929Z,0
2017-06-23T01:02:27.167Z,0
2017-06-23T01:03:36.789Z,0
2017-06-23T01:04:46.722Z,0
2017-06-23T01:05:56.979Z,0
2017-06-23T01:07:06.602Z,0
2017-06-23T01:08:16.534Z,0
2017-06-23T01:09:26.792Z,0
2017-06-23T01:10:37.048Z,0
2017-06-23T01:11:46.998Z,0
2017-06-23T01:12:56.944Z,0
2017-06-23T01:14:06.563Z,0
2017-06-23T01:15:16.505Z,0
2017-06-23T01:16:26.452Z,0
2017-06-23T01:17:36.701Z,0
2017-06-23T01:18:46.623Z,0
2017-06-23T01:19:56.886Z,0
2017-06-23T01:21:07.148Z,0
2017-06-23T01:22:17.087Z,0
2017-06-23T01:23:27.334Z,0
2017-06-23T01:24:37.282Z,0
2017-06-23T01:25:47.521Z,0
2017-06-23T01:26:57.463Z,0
2017-06-23T01:28:07.707Z,0
2017-06-23T01:29:17.641Z,0
2017-06-23T01:30:27.579Z,0
2017-06-23T01:31:37.526Z,0
2017-06-23T01:32:47.770Z,0
2017-06-23T01:33:57.707Z,0
2017-06-23T01:35:06.711Z,0
2017-06-23T01:36:16.956Z,0
2017-06-23T01:37:26.567Z,0
2017-06-23T01:38:36.818Z,0
2017-06-23T01:39:46.753Z,0
2017-06-23T01:40:57.013Z,0
2017-06-23T01:42:06.961Z,0
2017-06-23T01:43:17.212Z,0
2017-06-23T01:44:27.175Z,0
2017-06-23T01:45:36.797Z,0
2017-06-23T01:46:47.049Z,0
2017-06-23T01:47:56.987Z,0
2017-06-23T01:49:06.924Z,0
2017-06-23T01:50:17.167Z,0
2017-06-23T01:51:27.420Z,0
2017-06-23T01:52:36.736Z,0
2017-06-23T01:53:46.985Z,0
2017-06-23T01:54:57.231Z,0
2017-06-23T01:56:07.479Z,0
2017-06-23T01:57:17.738Z,0
2017-06-23T01:58:27.991Z,0
2017-06-23T01:59:37.921Z,0
2017-06-23T02:00:48.179Z,0
2017-06-23T02:01:58.106Z,0
2017-06-23T02:03:08.366Z,0
2017-06-23T02:04:18.616Z,0
2017-06-23T02:05:28.567Z,0
2017-06-23T02:06:38.527Z,0
2017-06-23T02:07:48.469Z,0
2017-06-23T02:08:57.763Z,0
2017-06-23T02:10:07.697Z,0
2017-06-23T02:11:17.632Z,0
2017-06-23T02:12:27.873Z,0
2017-06-23T02:13:37.813Z,0
2017-06-23T02:14:47.800Z,0
2017-06-23T02:15:58.052Z,0
2017-06-23T02:17:07.998Z,0
2017-06-23T02:18:18.246Z,0
2017-06-23T02:19:28.501Z,0
2017-06-23T02:20:38.476Z,0
2017-06-23T02:21:48.718Z,0
2017-06-23T02:22:58.668Z,0
2017-06-23T02:24:08.304Z,0
2017-06-23T02:25:18.565Z,0
2017-06-23T02:26:28.507Z,0
2017-06-23T02:27:38.446Z,0
2017-06-23T02:28:48.376Z,0
2017-06-23T02:29:58.618Z,0
2017-06-23T02:31:08.878Z,0
2017-06-23T02:32:18.818Z,0
2017-06-23T02:33:29.075Z,0
2017-06-23T02:34:39.026Z,0
2017-06-23T02:35:48.968Z,0
2017-06-23T02:36:59.225Z,0
2017-06-23T02:38:09.471Z,0
2017-06-23T02:39:19.729Z,0
2017-06-23T02:40:29.989Z,0
2017-06-23T02:41:39.921Z,0
2017-06-23T02:42:49.548Z,0
2017-06-23T02:43:59.836Z,0
2017-06-23T02:45:09.781Z,0
2017-06-23T02:46:20.031Z,0
2017-06-23T02:47:29.978Z,0
2017-06-23T02:48:39.285Z,0
2017-06-23T02:49:49.539Z,0
2017-06-23T02:50:59.470Z,0
2017-06-23T02:52:09.717Z,0
2017-06-23T02:53:19.646Z,0
2017-06-23T02:54:29.901Z,0
2017-06-23T02:55:40.137Z,0
2017-06-23T02:56:50.062Z,0
2017-06-23T02:58:00.001Z,0
2017-06-23T02:59:10.252Z,0
2017-06-23T03:00:20.195Z,0
2017-06-23T03:01:30.435Z,0
2017-06-23T03:02:40.674Z,0
2017-06-23T03:03:50.606Z,0
2017-06-23T03:05:00.548Z,0
2017-06-23T03:06:10.471Z,0
2017-06-23T03:07:20.395Z,0
2017-06-23T03:08:30.646Z,0
2017-06-23T03:09:40.585Z,0
2017-06-23T03:10:50.520Z,0
2017-06-23T03:12:00.788Z,0
2017-06-23T03:13:11.039Z,0
2017-06-23T03:14:21.303Z,0
2017-06-23T03:15:31.233Z,0
2017-06-23T03:16:41.171Z,0
2017-06-23T03:17:50.796Z,0
2017-06-23T03:19:01.046Z,0
2017-06-23T03:20:10.980Z,0
2017-06-23T03:21:21.222Z,0
2017-06-23T03:22:31.472Z,0
2017-06-23T03:23:41.415Z,0
2017-06-23T03:24:51.661Z,0
2017-06-23T03:26:01.915Z,0
2017-06-23T03:27:12.162Z,0
2017-06-23T03:28:22.411Z,0
2017-06-23T03:29:32.346Z,0
2017-06-23T03:30:42.594Z,0
2017-06-23T03:31:52.530Z,0
2017-06-23T03:33:02.468Z,0
2017-06-23T03:34:12.714Z,0
2017-06-23T03:35:22.669Z,0
2017-06-23T03:36:32.600Z,0
2017-06-23T03:37:42.837Z,0
2017-06-23T03:38:52.460Z,0
2017-06-23T03:40:02.391Z,0
2017-06-23T03:41:12.653Z,4
2017-06-23T03:42:22.593Z,0
2017-06-23T03:43:32.841Z,4
2017-06-23T03:44:43.083Z,4
2017-06-23T03:45:53.327Z,0
2017-06-23T03:47:03.260Z,4
2017-06-23T03:48:12.570Z,4
2017-06-23T03:49:22.510Z,0
2017-06-23T03:50:32.455Z,4
2017-06-23T03:51:42.716Z,4
2017-06-23T03:52:52.962Z,0
2017-06-23T03:54:02.926Z,4
2017-06-23T03:55:12.869Z,0
2017-06-23T03:56:22.493Z,4
2017-06-23T03:57:32.742Z,4
2017-06-23T03:58:42.678Z,0
2017-06-23T03:59:52.920Z,0
2017-06-23T04:01:02.873Z,4
2017-06-23T04:02:13.126Z,4
2017-06-23T04:03:23.373Z,4
2017-06-23T04:04:33.625Z,4
2017-06-23T04:05:43.889Z,4
2017-06-23T04:06:54.144Z,4
2017-06-23T04:08:04.084Z,4
2017-06-23T04:09:14.325Z,4
2017-06-23T04:10:24.573Z,4
2017-06-23T04:11:34.500Z,4
2017-06-23T04:12:44.442Z,4
2017-06-23T04:13:54.685Z,8
2017-06-23T04:15:04.619Z,4
2017-06-23T04:16:14.874Z,4
2017-06-23T04:17:24.801Z,4
2017-06-23T04:18:34.729Z,4
2017-06-23T04:19:44.361Z,8
2017-06-23T04:20:54.299Z,4
2017-06-23T04:22:04.553Z,4
2017-06-23T04:23:14.517Z,4
2017-06-23T04:24:24.454Z,4
2017-06-23T04:25:33.765Z,8
2017-06-23T04:26:43.692Z,4
2017-06-23T04:27:53.957Z,8
2017-06-23T04:29:03.887Z,4
2017-06-23T04:30:14.139Z,4
2017-06-23T04:31:24.073Z,4
2017-06-23T04:32:34.319Z,4
2017-06-23T04:33:44.249Z,4
2017-06-23T04:34:53.867Z,4
2017-06-23T04:36:03.802Z,4
2017-06-23T04:37:13.744Z,4
2017-06-23T04:38:26.132Z,8
2017-06-23T04:39:36.065Z,4
2017-06-23T04:40:46.307Z,4
2017-06-23T04:41:56.558Z,8
2017-06-23T04:43:05.865Z,8
2017-06-23T04:44:15.498Z,8
2017-06-23T04:45:25.743Z,4
2017-06-23T04:46:35.684Z,4
2017-06-23T04:47:45.925Z,4
2017-06-23T04:48:55.569Z,4
2017-06-23T04:50:05.509Z,4
2017-06-23T04:51:15.756Z,0
2017-06-23T04:52:26.010Z,4
2017-06-23T04:53:35.961Z,4
2017-06-23T04:54:45.887Z,4
2017-06-23T04:55:56.146Z,4
2017-06-23T04:57:06.111Z,0
2017-06-23T04:58:16.032Z,0
2017-06-23T04:59:25.644Z,4
2017-06-23T05:00:35.268Z,4
2017-06-23T05:01:44.259Z,0
2017-06-23T05:02:54.199Z,0
2017-06-23T05:04:04.440Z,0
2017-06-23T05:05:14.805Z,0
2017-06-23T05:06:24.806Z,0
2017-06-23T05:07:34.444Z,0
2017-06-23T05:08:44.683Z,4
2017-06-23T05:09:54.930Z,4
2017-06-23T05:11:04.871Z,0
2017-06-23T05:12:15.116Z,4
2017-06-23T05:13:25.053Z,0
2017-06-23T05:14:34.976Z,0
2017-06-23T05:15:44.915Z,0
2017-06-23T05:16:54.533Z,0
2017-06-23T05:18:04.471Z,0
2017-06-23T05:19:14.415Z,0
2017-06-23T05:20:24.346Z,4
2017-06-23T05:21:33.960Z,4
2017-06-23T05:22:44.203Z,4
2017-06-23T05:23:54.138Z,0
2017-06-23T05:25:04.375Z,0
2017-06-23T05:26:14.633Z,4
2017-06-23T05:27:24.570Z,4
2017-06-23T05:28:33.877Z,0
2017-06-23T05:29:43.806Z,0
2017-06-23T05:30:53.748Z,0
2017-06-23T05:32:03.704Z,0
2017-06-23T05:33:13.653Z,4
2017-06-23T05:34:23.592Z,4
2017-06-23T05:35:33.535Z,0
2017-06-23T05:36:43.780Z,4
2017-06-23T05:37:54.026Z,0
2017-06-23T05:39:03.976Z,0
2017-06-23T05:40:14.236Z,0
2017-06-23T05:41:24.175Z,0
2017-06-23T05:42:34.112Z,0
2017-06-23T05:43:43.735Z,0
2017-06-23T05:44:54.003Z,0
2017-06-23T05:46:03.944Z,0
2017-06-23T05:47:13.875Z,0
2017-06-23T05:48:24.124Z,0
2017-06-23T05:49:33.741Z,0
2017-06-23T05:50:44.002Z,0
2017-06-23T05:51:54.246Z,0
2017-06-23T05:53:04.179Z,0
2017-06-23T05:54:14.423Z,0
2017-06-23T05:55:24.666Z,0
2017-06-23T05:56:34.283Z,0
2017-06-23T05:57:44.210Z,0
2017-06-23T05:58:53.838Z,0
2017-06-23T06:00:04.084Z,0
2017-06-23T06:01:13.701Z,0
2017-06-23T06:02:23.010Z,0
2017-06-23T06:03:33.266Z,0
2017-06-23T06:04:43.512Z,0
2017-06-23T06:05:53.766Z,4
2017-06-23T06:07:04.013Z,4
2017-06-23T06:08:14.267Z,0
2017-06-23T06:09:24.507Z,4
2017-06-23T06:10:34.758Z,4
2017-06-23T06:11:44.695Z,0
2017-06-23T06:12:54.960Z,4
2017-06-23T06:14:05.202Z,4
2017-06-23T06:15:15.136Z,4
2017-06-23T06:16:25.389Z,4
2017-06-23T06:17:35.635Z,0
2017-06-23T06:18:45.881Z,4
2017-06-23T06:19:55.815Z,4
2017-06-23T06:21:06.060Z,0
2017-06-23T06:22:16.302Z,4
2017-06-23T06:23:26.552Z,0
2017-06-23T06:24:36.485Z,0
2017-06-23T06:25:46.742Z,0
2017-06-23T06:26:56.421Z,4
2017-06-23T06:28:06.049Z,0
2017-06-23T06:29:16.309Z,4
2017-06-23T06:30:26.555Z,0
2017-06-23T06:31:36.808Z,0
2017-06-23T06:32:47.056Z,4
2017-06-23T06:33:57.007Z,4
2017-06-23T06:35:07.261Z,0
2017-06-23T06:36:17.518Z,4
2017-06-23T06:37:27.469Z,4
2017-06-23T06:38:36.459Z,4
2017-06-23T06:39:45.770Z,0
2017-06-23T06:40:55.401Z,4
2017-06-23T06:42:05.344Z,0
2017-06-23T06:43:14.964Z,4
2017-06-23T06:44:25.221Z,4
2017-06-23T06:45:35.473Z,4
2017-06-23T06:46:45.413Z,4
2017-06-23T06:47:55.656Z,0
2017-06-23T06:49:05.580Z,4
2017-06-23T06:50:15.510Z,0
2017-06-23T06:51:25.757Z,4
2017-06-23T06:52:36.002Z,4
2017-06-23T06:53:46.251Z,4
2017-06-23T06:54:55.587Z,4
2017-06-23T06:56:05.522Z,4
2017-06-23T06:57:15.773Z,4
2017-06-23T06:58:25.711Z,4
2017-06-23T06:59:35.024Z,0
2017-06-23T07:00:45.279Z,0
2017-06-23T07:01:54.907Z,0
2017-06-23T07:03:05.158Z,4
2017-06-23T07:04:14.789Z,0
2017-06-23T07:05:24.403Z,0
2017-06-23T07:06:34.649Z,0
2017-06-23T07:07:43.947Z,0
2017-06-23T07:08:54.219Z,4
2017-06-23T07:10:04.170Z,4
2017-06-23T07:11:13.798Z,4
2017-06-23T07:12:23.417Z,0
2017-06-23T07:13:33.068Z,0
2017-06-23T07:14:43.324Z,4
2017-06-23T07:15:53.269Z,4
2017-06-23T07:17:02.584Z,4
2017-06-23T07:18:12.535Z,0
2017-06-23T07:19:21.839Z,4
2017-06-23T07:20:31.458Z,4
2017-06-23T07:21:41.078Z,4
2017-06-23T07:22:51.014Z,4
2017-06-23T07:24:00.954Z,8
2017-06-23T07:25:11.206Z,8
2017-06-23T07:26:21.455Z,4
2017-06-23T07:27:31.084Z,8
2017-06-23T07:28:40.698Z,4
2017-06-23T07:29:50.946Z,4
2017-06-23T07:31:01.194Z,4
2017-06-23T07:32:10.503Z,4
2017-06-23T07:33:20.127Z,8
2017-06-23T07:34:30.385Z,4
2017-06-23T07:35:40.627Z,4
2017-06-23T07:36:50.243Z,8
2017-06-23T07:38:00.501Z,8
2017-06-23T07:39:10.764Z,8
2017-06-23T07:40:20.683Z,4
2017-06-23T07:41:30.642Z,8
2017-06-23T07:42:40.574Z,4
2017-06-23T07:43:50.830Z,0
2017-06-23T07:45:00.452Z,0
2017-06-23T07:46:10.391Z,0
2017-06-23T07:47:20.336Z,4
2017-06-23T07:48:30.585Z,4
2017-06-23T07:49:40.523Z,4
2017-06-23T07:50:50.146Z,8
2017-06-23T07:52:00.406Z,8
2017-06-23T07:53:10.653Z,8
2017-06-23T07:54:20.903Z,8
2017-06-23T07:55:30.846Z,12
2017-06-23T07:56:40.460Z,28
2017-06-23T07:57:50.701Z,20
2017-06-23T07:59:00.632Z,24
2017-06-23T08:00:09.936Z,40
2017-06-23T08:01:19.547Z,20
2017-06-23T08:02:29.152Z,16
2017-06-23T08:03:39.083Z,16
2017-06-23T08:04:49.348Z,12
2017-06-23T08:05:59.294Z,12
2017-06-23T08:07:09.251Z,12
2017-06-23T08:08:19.499Z,12
2017-06-23T08:09:29.737Z,8
2017-06-23T08:10:39.984Z,12
2017-06-23T08:11:49.922Z,12
2017-06-23T08:12:59.543Z,60
2017-06-23T08:14:09.488Z,16
2017-06-23T08:15:19.733Z,36
2017-06-23T08:16:29.979Z,16
2017-06-23T08:17:39.595Z,52
2017-06-23T08:18:49.843Z,24
2017-06-23T08:19:59.766Z,20
2017-06-23T08:21:10.015Z,16
2017-06-23T08:22:19.639Z,16
2017-06-23T08:23:29.591Z,52
2017-06-23T08:24:39.225Z,28
2017-06-23T08:25:49.495Z,28
2017-06-23T08:26:59.124Z,12
2017-06-23T08:28:09.373Z,48
2017-06-23T08:29:19.307Z,28
2017-06-23T08:30:28.616Z,40
2017-06-23T08:31:38.554Z,12
2017-06-23T08:32:48.179Z,48
2017-06-23T08:33:58.439Z,16
2017-06-23T08:35:08.696Z,16
2017-06-23T08:36:18.635Z,44
2017-06-23T08:37:28.874Z,40
2017-06-23T08:38:38.178Z,44
2017-06-23T08:39:48.104Z,40
2017-06-23T08:40:57.729Z,36
2017-06-23T08:42:07.040Z,20
2017-06-23T08:43:17.296Z,16
2017-06-23T08:44:27.531Z,16
2017-06-23T08:45:37.463Z,16
2017-06-23T08:46:47.699Z,12
2017-06-23T08:47:57.967Z,12
2017-06-23T08:49:07.281Z,16
2017-06-23T08:50:17.208Z,12
2017-06-23T08:51:27.457Z,12
2017-06-23T08:52:37.707Z,12
2017-06-23T08:53:47.649Z,12
2017-06-23T08:54:57.578Z,16
2017-06-23T08:56:07.508Z,12
2017-06-23T08:57:17.758Z,20
2017-06-23T08:58:27.376Z,20
2017-06-23T08:59:37.312Z,20
2017-06-23T09:00:47.561Z,16
2017-06-23T09:01:57.193Z,12
2017-06-23T09:03:07.118Z,16
2017-06-23T09:04:17.046Z,12
2017-06-23T09:05:27.292Z,16
2017-06-23T09:06:36.917Z,12
2017-06-23T09:07:46.553Z,12
2017-06-23T09:08:56.494Z,16
2017-06-23T09:10:06.426Z,16
2017-06-23T09:11:16.680Z,16
2017-06-23T09:12:26.303Z,16
2017-06-23T09:13:36.245Z,16
2017-06-23T09:14:46.181Z,16
2017-06-23T09:15:56.135Z,16
2017-06-23T09:17:05.769Z,12
2017-06-23T09:18:16.017Z,12
2017-06-23T09:19:25.955Z,12
2017-06-23T09:20:36.208Z,12
2017-06-23T09:21:46.437Z,16
2017-06-23T09:22:56.099Z,12
2017-06-23T09:24:06.339Z,16
2017-06-23T09:25:16.267Z,12
2017-06-23T09:26:26.520Z,16
2017-06-23T09:27:36.142Z,12
2017-06-23T09:28:45.764Z,16
2017-06-23T09:29:55.389Z,16
2017-06-23T09:31:04.698Z,12
2017-06-23T09:32:14.959Z,16
2017-06-23T09:33:24.585Z,12
2017-06-23T09:34:34.831Z,16
2017-06-23T09:35:44.766Z,12
2017-06-23T09:36:55.019Z,16
2017-06-23T09:38:04.962Z,16
2017-06-23T09:39:14.900Z,16
2017-06-23T09:40:24.829Z,16
2017-06-23T09:41:35.079Z,16
2017-06-23T09:42:45.330Z,16
2017-06-23T09:43:55.264Z,20
2017-06-23T09:45:05.195Z,20
2017-06-23T09:46:15.463Z,20
2017-06-23T09:47:25.708Z,20
2017-06-23T09:48:35.652Z,16
2017-06-23T09:49:45.586Z,16
2017-06-23T09:50:55.863Z,16
2017-06-23T09:52:05.803Z,16
2017-06-23T09:53:16.077Z,16
2017-06-23T09:54:26.328Z,12
2017-06-23T09:55:36.580Z,8
2017-06-23T09:56:46.508Z,8
2017-06-23T09:57:56.445Z,8
2017-06-23T09:59:06.389Z,8
2017-06-23T10:00:16.640Z,12
2017-06-23T10:01:26.890Z,12
2017-06-23T10:02:36.826Z,12
2017-06-23T10:03:47.088Z,16
2017-06-23T10:04:57.024Z,16
2017-06-23T10:06:06.337Z,12
2017-06-23T10:07:15.648Z,12
2017-06-23T10:08:25.269Z,12
2017-06-23T10:09:35.200Z,12
2017-06-23T10:10:45.126Z,12
2017-06-23T10:11:54.805Z,16
2017-06-23T10:13:04.743Z,12
2017-06-23T10:14:14.681Z,12
2017-06-23T10:15:24.918Z,12
2017-06-23T10:16:35.161Z,8
2017-06-23T10:17:44.784Z,12
2017-06-23T10:18:55.031Z,8
2017-06-23T10:20:04.973Z,12
2017-06-23T10:21:14.914Z,12
2017-06-23T10:22:24.841Z,8
2017-06-23T10:23:34.773Z,12
2017-06-23T10:24:44.708Z,16
2017-06-23T10:25:54.648Z,16
2017-06-23T10:27:04.890Z,16
2017-06-23T10:28:15.140Z,16
2017-06-23T10:29:24.763Z,16
2017-06-23T10:30:35.022Z,16
2017-06-23T10:31:45.296Z,12
2017-06-23T10:32:55.546Z,8
2017-06-23T10:34:05.508Z,8
2017-06-23T10:35:15.746Z,12
2017-06-23T10:36:25.683Z,12
2017-06-23T10:37:35.619Z,8
2017-06-23T10:38:45.868Z,8
2017-06-23T10:39:56.114Z,12
2017-06-23T10:41:05.424Z,12
2017-06-23T10:42:15.356Z,8
2017-06-23T10:43:25.604Z,8
2017-06-23T10:44:35.554Z,8
2017-06-23T10:45:45.808Z,4
2017-06-23T10:46:56.041Z,4
2017-06-23T10:48:06.296Z,4
2017-06-23T10:49:16.552Z,8
2017-06-23T10:50:26.183Z,8
2017-06-23T10:51:35.794Z,12
2017-06-23T10:52:45.731Z,8
2017-06-23T10:53:55.354Z,8
2017-06-23T10:55:05.298Z,8
2017-06-23T10:56:15.248Z,8
2017-06-23T10:57:25.500Z,8
2017-06-23T10:58:35.765Z,12
2017-06-23T10:59:45.383Z,8
2017-06-23T11:00:55.326Z,12
2017-06-23T11:02:04.941Z,8
2017-06-23T11:03:14.874Z,8
2017-06-23T11:04:24.494Z,8
2017-06-23T11:05:34.753Z,4
2017-06-23T11:06:44.987Z,8
2017-06-23T11:07:54.919Z,4
2017-06-23T11:09:04.843Z,8
2017-06-23T11:10:15.131Z,8
2017-06-23T11:11:25.067Z,8
2017-06-23T11:12:34.701Z,8
2017-06-23T11:13:44.327Z,8
2017-06-23T11:14:54.596Z,8
2017-06-23T11:16:04.855Z,8
2017-06-23T11:17:14.782Z,12
2017-06-23T11:18:24.733Z,12
2017-06-23T11:19:34.666Z,12
2017-06-23T11:20:44.600Z,12
2017-06-23T11:21:54.865Z,8
2017-06-23T11:23:05.106Z,8
2017-06-23T11:24:14.737Z,4
2017-06-23T11:25:24.984Z,8
2017-06-23T11:26:35.242Z,8
2017-06-23T11:27:45.497Z,8
2017-06-23T11:28:55.433Z,12
2017-06-23T11:30:05.689Z,12
2017-06-23T11:31:15.007Z,12
2017-06-23T11:32:24.943Z,12
2017-06-23T11:33:34.879Z,12
2017-06-23T11:34:44.818Z,12
2017-06-23T11:35:54.448Z,12
2017-06-23T11:37:04.376Z,8
2017-06-23T11:38:14.297Z,12
2017-06-23T11:39:23.918Z,8
2017-06-23T11:40:34.161Z,8
2017-06-23T11:41:44.118Z,8
2017-06-23T11:42:54.363Z,12
2017-06-23T11:44:04.296Z,12
2017-06-23T11:45:14.231Z,8
2017-06-23T11:46:23.862Z,12
2017-06-23T11:47:33.795Z,12
2017-06-23T11:48:43.108Z,12
2017-06-23T11:49:53.359Z,12
2017-06-23T11:51:02.983Z,12
2017-06-23T11:52:13.231Z,12
2017-06-23T11:53:23.175Z,12
2017-06-23T11:54:32.793Z,12
2017-06-23T11:55:43.046Z,12
2017-06-23T11:56:52.981Z,12
2017-06-23T11:58:02.921Z,8
2017-06-23T11:59:12.546Z,8
2017-06-23T12:00:22.158Z,12
2017-06-23T12:01:32.087Z,12
2017-06-23T12:02:42.054Z,12
2017-06-23T12:03:51.676Z,12
2017-06-23T12:05:01.297Z,12
2017-06-23T12:06:10.923Z,12
2017-06-23T12:07:20.228Z,16
2017-06-23T12:08:29.541Z,12
2017-06-23T12:09:39.795Z,12
2017-06-23T12:10:49.722Z,8
2017-06-23T12:11:59.978Z,8
2017-06-23T12:13:09.599Z,4
2017-06-23T12:14:19.849Z,4
2017-06-23T12:15:30.100Z,8
2017-06-23T12:16:40.365Z,8
2017-06-23T12:17:50.311Z,4
2017-06-23T12:19:00.247Z,8
2017-06-23T12:20:10.192Z,8
2017-06-23T12:21:20.446Z,4
2017-06-23T12:22:30.065Z,4
2017-06-23T12:23:39.999Z,4
2017-06-23T12:24:49.628Z,4
2017-06-23T12:25:59.890Z,0
2017-06-23T12:27:10.135Z,4
2017-06-23T12:28:20.396Z,4
2017-06-23T12:29:30.020Z,4
2017-06-23T12:30:39.956Z,0
2017-06-23T12:31:50.201Z,4
2017-06-23T12:33:00.137Z,4
2017-06-23T12:34:09.758Z,8
2017-06-23T12:35:20.009Z,4
2017-06-23T12:36:29.953Z,4
2017-06-23T12:37:40.200Z,4
2017-06-23T12:38:49.512Z,4
2017-06-23T12:39:59.759Z,4
2017-06-23T12:41:10.012Z,4
2017-06-23T12:42:19.634Z,8
2017-06-23T12:43:29.562Z,8
2017-06-23T12:44:39.813Z,12
2017-06-23T12:45:49.745Z,12
2017-06-23T12:46:59.678Z,8
2017-06-23T12:48:09.620Z,12
2017-06-23T12:49:19.231Z,12
2017-06-23T12:50:29.165Z,16
2017-06-23T12:51:38.791Z,8
2017-06-23T12:52:48.724Z,8
2017-06-23T12:53:58.966Z,12
2017-06-23T12:55:09.209Z,12
2017-06-23T12:56:19.146Z,16
2017-06-23T12:57:29.399Z,12
2017-06-23T12:58:39.329Z,12
2017-06-23T12:59:49.590Z,12
2017-06-23T13:00:59.537Z,12
2017-06-23T13:02:08.849Z,12
2017-06-23T13:03:18.477Z,12
2017-06-23T13:04:28.727Z,12
2017-06-23T13:05:38.358Z,12
2017-06-23T13:06:48.603Z,12
2017-06-23T13:07:58.848Z,12
2017-06-23T13:09:08.786Z,16
2017-06-23T13:10:19.031Z,20
2017-06-23T13:11:28.968Z,16
2017-06-23T13:12:38.910Z,16
2017-06-23T13:13:48.855Z,16
2017-06-23T13:14:59.098Z,16
2017-06-23T13:16:08.729Z,12
2017-06-23T13:17:18.680Z,16
2017-06-23T13:18:28.611Z,20
2017-06-23T13:19:37.923Z,16
2017-06-23T13:20:47.231Z,16
2017-06-23T13:21:57.483Z,16
2017-06-23T13:23:07.419Z,12
2017-06-23T13:24:17.664Z,12
2017-06-23T13:25:27.604Z,12
2017-06-23T13:26:37.856Z,8
2017-06-23T13:27:48.111Z,8
2017-06-23T13:28:58.055Z,12
2017-06-23T13:30:07.992Z,12
2017-06-23T13:31:17.942Z,8
2017-06-23T13:32:28.201Z,12
2017-06-23T13:33:38.151Z,12
2017-06-23T13:34:48.406Z,8
2017-06-23T13:35:58.650Z,12
2017-06-23T13:37:08.902Z,8
2017-06-23T13:38:19.152Z,12
2017-06-23T13:39:28.763Z,8
2017-06-23T13:40:39.017Z,8
2017-06-23T13:41:48.952Z,8
2017-06-23T13:42:59.211Z,8
2017-06-23T13:44:09.142Z,8
2017-06-23T13:45:19.399Z,8
2017-06-23T13:46:29.343Z,8
2017-06-23T13:47:38.961Z,8
2017-06-23T13:48:49.220Z,8
2017-06-23T13:49:59.474Z,8
2017-06-23T13:51:09.095Z,8
2017-06-23T13:52:18.410Z,8
2017-06-23T13:53:28.030Z,8
2017-06-23T13:54:37.957Z,8
2017-06-23T13:55:47.588Z,8
2017-06-23T13:56:57.525Z,8
2017-06-23T13:58:07.475Z,12
2017-06-23T13:59:17.422Z,12
2017-06-23T14:00:27.666Z,12
2017-06-23T14:01:37.927Z,16
2017-06-23T14:02:47.242Z,12
2017-06-23T14:03:56.891Z,12
2017-06-23T14:05:06.841Z,12
2017-06-23T14:06:16.767Z,8
2017-06-23T14:07:26.700Z,8
2017-06-23T14:08:36.621Z,12
2017-06-23T14:09:46.539Z,8
2017-06-23T14:10:56.780Z,4
2017-06-23T14:12:06.727Z,8
2017-06-23T14:13:16.984Z,4
2017-06-23T14:14:26.931Z,8
2017-06-23T14:15:37.171Z,4
2017-06-23T14:16:47.423Z,8
2017-06-23T14:17:57.670Z,4
2017-06-23T14:19:07.610Z,4
2017-06-23T14:20:17.861Z,4
2017-06-23T14:21:28.103Z,4
2017-06-23T14:22:38.053Z,4
2017-06-23T14:23:47.995Z,4
2017-06-23T14:24:57.926Z,4
2017-06-23T14:26:07.873Z,4
2017-06-23T14:27:17.491Z,8
2017-06-23T14:28:27.749Z,4
2017-06-23T14:29:38.010Z,4
2017-06-23T14:30:48.264Z,4
2017-06-23T14:31:57.573Z,4
2017-06-23T14:33:07.202Z,4
2017-06-23T14:34:16.814Z,4
2017-06-23T14:35:27.073Z,0
2017-06-23T14:36:36.406Z,0
2017-06-23T14:37:46.359Z,0
2017-06-23T14:38:55.997Z,4
2017-06-23T14:40:06.248Z,4
2017-06-23T14:41:16.203Z,4
2017-06-23T14:42:26.132Z,8
2017-06-23T14:43:35.752Z,4
2017-06-23T14:44:45.378Z,8
2017-06-23T14:45:54.990Z,8
2017-06-23T14:47:05.224Z,12
2017-06-23T14:48:15.484Z,24
2017-06-23T14:49:25.107Z,24
2017-06-23T14:50:34.733Z,24
2017-06-23T14:51:44.689Z,20
2017-06-23T14:52:54.945Z,24
2017-06-23T14:54:05.189Z,24
2017-06-23T14:55:15.131Z,16
2017-06-23T14:56:25.073Z,16
2017-06-23T14:57:35.325Z,16
2017-06-23T14:58:44.634Z,12
2017-06-23T14:59:54.567Z,12
2017-06-23T15:01:04.494Z,8
2017-06-23T15:02:14.745Z,8
2017-06-23T15:03:24.680Z,8
2017-06-23T15:04:34.327Z,4
2017-06-23T15:05:44.579Z,8
2017-06-23T15:06:54.829Z,8
2017-06-23T15:08:04.771Z,8
2017-06-23T15:09:14.393Z,12
2017-06-23T15:10:24.645Z,8
2017-06-23T15:11:34.269Z,8
2017-06-23T15:12:43.894Z,8
2017-06-23T15:13:53.831Z,8
2017-06-23T15:15:03.461Z,8
2017-06-23T15:16:13.693Z,12
2017-06-23T15:17:23.934Z,8
2017-06-23T15:18:34.185Z,12
2017-06-23T15:19:43.802Z,8
2017-06-23T15:20:53.736Z,12
2017-06-23T15:22:03.669Z,16
2017-06-23T15:23:13.609Z,20
2017-06-23T15:24:23.541Z,16
2017-06-23T15:25:33.478Z,12
2017-06-23T15:26:42.787Z,16
2017-06-23T15:27:52.721Z,20
2017-06-23T15:29:02.975Z,16
2017-06-23T15:30:13.212Z,20
2017-06-23T15:31:23.463Z,16
2017-06-23T15:32:33.078Z,16
2017-06-23T15:33:42.699Z,16
2017-06-23T15:34:52.946Z,16
2017-06-23T15:36:03.343Z,12
2017-06-23T15:37:13.271Z,12
2017-06-23T15:38:23.560Z,8
2017-06-23T15:39:33.490Z,16
2017-06-23T15:40:43.728Z,8
2017-06-23T15:41:53.344Z,8
2017-06-23T15:43:03.286Z,12
2017-06-23T15:44:13.228Z,8
2017-06-23T15:45:23.485Z,12
2017-06-23T15:46:33.748Z,16
2017-06-23T15:47:43.376Z,12
2017-06-23T15:48:53.314Z,8
2017-06-23T15:50:03.561Z,12
2017-06-23T15:51:13.818Z,12
2017-06-23T15:52:23.756Z,16
2017-06-23T15:53:33.385Z,16
2017-06-23T15:54:43.320Z,12
2017-06-23T15:55:53.258Z,16
2017-06-23T15:57:03.516Z,12
2017-06-23T15:58:13.766Z,8
2017-06-23T15:59:24.020Z,8
2017-06-23T16:00:33.324Z,8
2017-06-23T16:01:43.261Z,8
2017-06-23T16:02:53.193Z,8
2017-06-23T16:04:03.442Z,12
2017-06-23T16:05:13.375Z,12
2017-06-23T16:06:23.623Z,8
2017-06-23T16:07:33.871Z,12
2017-06-23T16:08:44.113Z,12
2017-06-23T16:09:53.421Z,12
2017-06-23T16:11:03.357Z,8
2017-06-23T16:12:13.612Z,8
2017-06-23T16:13:23.862Z,4
2017-06-23T16:14:33.793Z,8
2017-06-23T16:15:43.736Z,8
2017-06-23T16:16:53.365Z,4
2017-06-23T16:18:03.618Z,8
2017-06-23T16:19:13.581Z,8
2017-06-23T16:20:23.821Z,8
2017-06-23T16:21:33.746Z,8
2017-06-23T16:22:44.006Z,8
2017-06-23T16:23:53.947Z,4
2017-06-23T16:25:04.204Z,4
2017-06-23T16:26:14.449Z,4
2017-06-23T16:27:24.392Z,8
2017-06-23T16:28:34.325Z,4
2017-06-23T16:29:44.262Z,4
2017-06-23T16:30:54.204Z,4
2017-06-23T16:32:04.157Z,8
2017-06-23T16:33:14.403Z,8
2017-06-23T16:34:24.026Z,4
2017-06-23T16:35:34.290Z,8
2017-06-23T16:36:43.921Z,8
2017-06-23T16:37:53.904Z,8
2017-06-23T16:39:04.145Z,8
2017-06-23T16:40:14.080Z,4
2017-06-23T16:41:24.008Z,4
2017-06-23T16:42:33.953Z,4
2017-06-23T16:43:43.577Z,4
2017-06-23T16:44:53.198Z,4
2017-06-23T16:46:03.132Z,8
2017-06-23T16:47:13.393Z,8
2017-06-23T16:48:23.325Z,8
2017-06-23T16:49:33.268Z,4
2017-06-23T16:50:43.514Z,8
2017-06-23T16:51:53.130Z,8
2017-06-23T16:53:03.072Z,8
2017-06-23T16:54:13.317Z,8
2017-06-23T16:55:23.253Z,4
2017-06-23T16:56:33.495Z,8
2017-06-23T16:57:43.434Z,8
2017-06-23T16:58:53.370Z,8
2017-06-23T17:00:03.304Z,4
2017-06-23T17:01:13.244Z,8
2017-06-23T17:02:22.864Z,4
2017-06-23T17:03:33.100Z,4